KBFL/BFL METAR and TAF weather

Enter ICAO airport designator
Station Type Date Time Source
KBFL METAR 2022/06/29 23:54 UTC NOAA

KBFL 292354Z 31008KT 10SM CLR 39/01 A2987 RMK AO2 SLP107 T03940006 10394 20328 58021


Station Type Date Time Source
KBFL Decoded METAR 2022/06/29 23:54 UTC NOAA

BAKERSFIELD MEADOWS FIELD, CA, United States (KBFL) 35-26N 119-03W 151M
Jun 29, 2022 - 07:54 PM EDT / 2022.06.29 2354 UTC
Wind: from the NW (310 degrees) at 9 MPH (8 KT):0
Visibility: 10 mile(s):0
Sky conditions: clear
Temperature: 102.9 F (39.4 C)
Dew Point: 33.1 F (0.6 C)
Relative Humidity: 8%
Pressure (altimeter): 29.87 in. Hg (1011 hPa)
Pressure tendency: 0.06 inches (2.1 hPa) lower than three hours ago
ob: KBFL 292354Z 31008KT 10SM CLR 39/01 A2987 RMK AO2 SLP107 T03940006 10394 20328 58021
cycle: 0

Station Type Date Time Source
KBFL TAF 2022/06/29 18:22 UTC NOAA

TAF KBFL 291720Z 2918/3018 VRB05KT P6SM SKC
FM291900 31012G18KT P6SM SKC
FM300600 35006KT P6SM SKC

Example: see airport list